Time;durP1;ratioP1;P1;durP2;ratioP2;P2;SDS_P1;SDS_P2;PMS_P1;PMS_P2;Temp;Humidity;BMP_temperature;BMP_pressure;BME280_temperature;BME280_humidity;BME280_pressure;Samples;Min_cycle;Max_cycle;Signal;HPM_P1;HPM_P2
2022/02/08 00:01:08;;;;;;;11.30;1.23;;;6.10;86.90;;;;;;5036761;28;20421;-70
2022/02/08 00:03:33;;;;;;;4.68;1.33;;;6.10;86.70;;;;;;5029072;28;20112;-71
2022/02/08 00:06:13;;;;;;;8.60;1.55;;;6.10;86.50;;;;;;5034867;28;20125;-71
2022/02/08 00:08:39;;;;;;;7.50;1.23;;;6.10;86.70;;;;;;5034513;28;20033;-70
2022/02/08 00:11:05;;;;;;;7.47;1.35;;;6.10;86.40;;;;;;5035795;28;20031;-70
2022/02/08 00:13:31;;;;;;;9.18;1.77;;;6.10;86.20;;;;;;5030657;28;20056;-70
2022/02/08 00:15:57;;;;;;;7.10;1.20;;;6.10;86.10;;;;;;5032897;28;20028;-70
2022/02/08 00:18:23;;;;;;;9.23;1.17;;;6.10;86.20;;;;;;5038519;28;20440;-70
2022/02/08 00:20:49;;;;;;;5.47;1.23;;;6.10;86.20;;;;;;5019897;28;20029;-71
2022/02/08 00:23:15;;;;;;;15.90;2.58;;;6.10;86.50;;;;;;5038085;28;20043;-71
2022/02/08 00:25:40;;;;;;;6.80;2.20;;;6.10;86.50;;;;;;5033694;28;20028;-71
2022/02/08 00:28:06;;;;;;;9.82;2.50;;;6.10;87.10;;;;;;5035858;28;20028;-71
2022/02/08 00:30:32;;;;;;;11.05;1.83;;;6.00;86.60;;;;;;5036020;28;20448;-71
2022/02/08 00:32:57;;;;;;;8.00;1.20;;;6.00;86.70;;;;;;5039621;28;20458;-71
2022/02/08 00:35:23;;;;;;;8.82;1.02;;;6.00;86.60;;;;;;5031005;28;20044;-71
2022/02/08 00:37:49;;;;;;;8.77;1.40;;;6.00;86.40;;;;;;5032042;28;20036;-72
2022/02/08 00:40:15;;;;;;;5.85;1.30;;;6.10;86.60;;;;;;5040611;28;20036;-73
2022/02/08 00:42:41;;;;;;;7.70;1.20;;;6.00;86.10;;;;;;5037973;28;20029;-73
2022/02/08 00:48:03;;;;;;;8.93;1.35;;;6.00;86.60;;;;;;5034182;28;20017;-72
2022/02/08 00:50:29;;;;;;;11.77;1.50;;;5.90;86.40;;;;;;5037226;28;20028;-70
2022/02/08 00:52:55;;;;;;;9.88;1.73;;;5.80;86.50;;;;;;5040326;28;20028;-72
2022/02/08 00:55:21;;;;;;;7.78;1.45;;;5.80;86.70;;;;;;5036258;28;20025;-72
2022/02/08 00:57:46;;;;;;;6.03;1.38;;;5.60;86.60;;;;;;5033372;28;20071;-72
2022/02/08 01:00:13;;;;;;;9.45;1.20;;;5.50;87.20;;;;;;5034476;28;20029;-72
2022/02/08 01:02:39;;;;;;;7.50;1.38;;;5.40;87.40;;;;;;5037602;28;20560;-72
2022/02/08 01:05:08;;;;;;;8.82;1.60;;;5.30;87.70;;;;;;5040285;28;20035;-72
2022/02/08 01:07:35;;;;;;;14.20;1.50;;;5.20;88.10;;;;;;5032267;28;20496;-72
2022/02/08 01:10:02;;;;;;;8.60;1.20;;;5.10;88.20;;;;;;5033537;28;20036;-72
2022/02/08 01:12:31;;;;;;;6.22;1.00;;;5.00;88.50;;;;;;5037020;28;20025;-72
2022/02/08 01:14:58;;;;;;;12.65;1.75;;;5.00;89.00;;;;;;5038032;28;20047;-72
2022/02/08 01:17:25;;;;;;;5.47;1.05;;;4.90;89.10;;;;;;5033123;28;20147;-72
2022/02/08 01:20:00;;;;;;;8.35;1.42;;;4.90;89.10;;;;;;5033384;28;20515;-72
2022/02/08 01:22:26;;;;;;;8.82;1.20;;;4.80;89.70;;;;;;5036595;28;20050;-72
2022/02/08 01:24:52;;;;;;;11.30;1.42;;;4.80;89.80;;;;;;5038532;28;20087;-72
2022/02/08 01:27:22;;;;;;;5.28;1.13;;;4.70;89.80;;;;;;5038218;28;20032;-72
2022/02/08 01:35:08;;;;;;;14.07;1.75;;;4.60;90.20;;;;;;5040837;28;20711;-70
2022/02/08 01:42:50;;;;;;;11.15;1.58;;;4.50;90.90;;;;;;5031888;28;20036;-72
2022/02/08 01:45:40;;;;;;;6.93;1.23;;;4.50;90.70;;;;;;5039632;28;20029;-71
2022/02/08 01:48:28;;;;;;;6.47;1.83;;;4.50;90.70;;;;;;5032431;28;20489;-72
2022/02/08 01:50:55;;;;;;;6.95;1.10;;;4.60;90.60;;;;;;5034486;28;20060;-72
2022/02/08 01:53:22;;;;;;;14.82;2.13;;;4.50;90.60;;;;;;5027736;28;20497;-72
2022/02/08 01:55:50;;;;;;;7.43;1.38;;;4.60;90.60;;;;;;5037301;28;20040;-72
2022/02/08 01:58:17;;;;;;;6.20;1.30;;;4.60;90.40;;;;;;5035478;28;20603;-72
2022/02/08 02:00:43;;;;;;;13.00;2.05;;;4.60;90.40;;;;;;5032154;28;20065;-72
2022/02/08 02:03:10;;;;;;;6.35;1.83;;;4.60;90.50;;;;;;5031016;28;20120;-72
2022/02/08 02:05:36;;;;;;;4.35;1.63;;;4.60;90.50;;;;;;5032552;28;20053;-72
2022/02/08 02:08:03;;;;;;;7.95;1.45;;;4.60;90.50;;;;;;5039390;28;20043;-72
2022/02/08 02:10:31;;;;;;;9.15;1.33;;;4.60;90.60;;;;;;5033253;28;20014;-72
2022/02/08 02:13:01;;;;;;;11.07;1.98;;;4.70;90.40;;;;;;5037504;28;20143;-71
2022/02/08 02:15:34;;;;;;;7.13;1.52;;;4.80;90.40;;;;;;5014947;28;20036;-72
2022/02/08 02:18:01;;;;;;;7.55;1.10;;;4.80;90.30;;;;;;5037384;28;20033;-72
2022/02/08 02:20:31;;;;;;;10.85;1.63;;;4.90;90.20;;;;;;5033757;28;20720;-71
2022/02/08 02:22:57;;;;;;;7.80;1.20;;;4.90;89.50;;;;;;5038850;28;20040;-72
2022/02/08 02:25:24;;;;;;;5.72;1.50;;;4.90;89.50;;;;;;5030518;28;20026;-72
2022/02/08 02:27:53;;;;;;;10.30;1.77;;;4.90;89.70;;;;;;5038043;28;20071;-72
2022/02/08 02:30:19;;;;;;;6.80;1.30;;;5.00;89.50;;;;;;5035578;28;20037;-72
2022/02/08 02:32:45;;;;;;;6.05;2.25;;;5.10;88.60;;;;;;5033253;28;20044;-72
2022/02/08 02:35:12;;;;;;;11.77;1.77;;;5.00;88.60;;;;;;5031379;28;20508;-72
2022/02/08 02:37:37;;;;;;;13.38;1.45;;;5.00;88.70;;;;;;5032731;28;20033;-72
2022/02/08 02:40:05;;;;;;;6.97;1.85;;;5.00;88.90;;;;;;5038626;28;20128;-72
2022/02/08 02:42:33;;;;;;;8.20;1.80;;;5.10;88.60;;;;;;5033720;28;20029;-72
2022/02/08 02:45:03;;;;;;;8.75;1.70;;;5.10;88.30;;;;;;5021965;28;20025;-72
2022/02/08 02:47:29;;;;;;;9.93;1.90;;;5.10;88.40;;;;;;5025721;28;20033;-72
2022/02/08 02:49:56;;;;;;;9.70;1.77;;;5.20;88.30;;;;;;5038471;28;20021;-72
2022/02/08 02:52:22;;;;;;;8.27;1.90;;;5.20;88.20;;;;;;5034666;28;20037;-72
2022/02/08 02:54:53;;;;;;;6.40;2.00;;;5.20;88.10;;;;;;5017635;28;20025;-72
2022/02/08 02:57:23;;;;;;;14.45;2.38;;;5.30;87.90;;;;;;5032033;28;20400;-72
2022/02/08 02:59:59;;;;;;;7.65;2.03;;;5.30;87.50;;;;;;5034105;28;20033;-72
2022/02/08 03:02:37;;;;;;;10.50;2.28;;;5.30;87.40;;;;;;5034357;28;20063;-72
2022/02/08 03:18:45;;;;;;;5.25;1.70;;;5.30;86.90;;;;;;5034314;28;20033;-72
2022/02/08 03:21:13;;;;;;;12.45;1.95;;;5.30;86.70;;;;;;5025252;28;20097;-72
2022/02/08 03:23:40;;;;;;;13.10;2.40;;;5.30;86.70;;;;;;5037642;28;20116;-69
2022/02/08 03:26:08;;;;;;;11.52;2.55;;;5.30;86.70;;;;;;5041898;28;20029;-71
2022/02/08 03:28:40;;;;;;;14.15;2.22;;;5.30;86.90;;;;;;5034919;28;20025;-72
2022/02/08 03:31:09;;;;;;;7.93;1.88;;;5.40;86.50;;;;;;5033855;28;20020;-72
2022/02/08 03:33:37;;;;;;;11.70;1.85;;;5.40;86.20;;;;;;5038016;28;20075;-72
2022/02/08 03:36:09;;;;;;;11.07;2.22;;;5.40;85.90;;;;;;5041257;28;20079;-72
2022/02/08 03:38:42;;;;;;;9.07;1.85;;;5.50;85.10;;;;;;5033524;28;20037;-72
2022/02/08 03:41:10;;;;;;;8.18;2.00;;;5.50;85.00;;;;;;5033005;28;20045;-72
2022/02/08 03:43:43;;;;;;;8.93;2.13;;;5.50;85.20;;;;;;5038017;28;20755;-72
2022/02/08 03:46:16;;;;;;;12.40;1.92;;;5.50;85.30;;;;;;5041089;28;20028;-72
2022/02/08 03:48:43;;;;;;;8.20;1.85;;;5.50;84.50;;;;;;5034816;28;20056;-72
2022/02/08 03:51:11;;;;;;;4.80;1.58;;;5.60;84.70;;;;;;5033175;28;20025;-72
2022/02/08 03:53:45;;;;;;;5.15;1.90;;;5.60;83.90;;;;;;5019369;28;20030;-72
2022/02/08 03:56:16;;;;;;;10.73;1.80;;;5.70;83.10;;;;;;5040432;28;20040;-72
2022/02/08 03:58:42;;;;;;;7.53;1.67;;;5.70;82.40;;;;;;5035317;28;20550;-70
2022/02/08 04:03:52;;;;;;;7.82;1.80;;;5.70;82.00;;;;;;5032792;28;20044;-72
2022/02/08 04:06:18;;;;;;;6.65;1.90;;;5.70;82.00;;;;;;5041756;28;20036;-72
2022/02/08 04:08:43;;;;;;;6.07;2.17;;;5.80;82.00;;;;;;5038630;28;20101;-72
2022/02/08 04:11:09;;;;;;;9.27;1.98;;;5.80;81.80;;;;;;5039464;28;20017;-72
2022/02/08 04:13:54;;;;;;;13.32;1.50;;;5.90;81.40;;;;;;5032421;28;20722;-72
2022/02/08 04:16:39;;;;;;;7.90;2.22;;;5.90;80.70;;;;;;5036392;28;20033;-72
2022/02/08 04:19:28;;;;;;;4.55;1.27;;;5.90;80.70;;;;;;5038246;28;20037;-72
2022/02/08 04:35:43;;;;;;;6.97;1.58;;;5.90;80.00;;;;;;5027990;28;20029;-72
2022/02/08 04:43:12;;;;;;;6.47;1.85;;;6.10;80.00;;;;;;5039427;28;20032;-73
2022/02/08 04:45:58;;;;;;;4.32;1.52;;;6.10;80.10;;;;;;5033105;28;20047;-72
2022/02/08 04:48:40;;;;;;;8.88;2.17;;;6.20;80.00;;;;;;5037699;28;20079;-73
2022/02/08 04:51:18;;;;;;;9.85;2.08;;;6.20;79.00;;;;;;5038922;28;20361;-72
2022/02/08 04:53:55;;;;;;;8.73;2.05;;;6.20;79.40;;;;;;5036375;28;20041;-72
2022/02/08 04:56:31;;;;;;;8.95;2.42;;;6.20;79.50;;;;;;5033244;28;20037;-71
2022/02/08 05:45:33;;;;;;;9.13;3.28;;;6.40;82.80;;;;;;5036147;28;20559;-70
2022/02/08 05:47:58;;;;;;;11.90;3.53;;;6.40;82.40;;;;;;5036879;28;20515;-72
2022/02/08 05:55:24;;;;;;;14.95;3.35;;;6.60;81.50;;;;;;5029876;28;20051;-70
2022/02/08 05:57:53;;;;;;;10.75;3.30;;;6.60;80.80;;;;;;5036595;28;20037;-70
2022/02/08 06:00:28;;;;;;;13.40;3.38;;;6.50;80.90;;;;;;5034354;28;20054;-72
2022/02/08 06:03:14;;;;;;;11.27;3.10;;;6.50;80.90;;;;;;5037457;28;20047;-70
2022/02/08 06:05:50;;;;;;;11.50;3.85;;;6.50;81.10;;;;;;5040194;28;20466;-70
2022/02/08 06:08:16;;;;;;;8.10;3.42;;;6.50;81.10;;;;;;5034436;28;20171;-73
2022/02/08 06:11:04;;;;;;;13.70;3.90;;;6.50;81.30;;;;;;5030704;28;20116;-72
2022/02/08 06:13:30;;;;;;;11.18;3.40;;;6.50;81.00;;;;;;5036997;28;20146;-72
2022/02/08 06:16:04;;;;;;;12.20;3.83;;;6.50;80.90;;;;;;5039218;28;20028;-72
2022/02/08 06:18:31;;;;;;;12.20;3.80;;;6.50;81.40;;;;;;5035348;28;20032;-72
2022/02/08 06:20:57;;;;;;;13.52;4.53;;;6.60;81.50;;;;;;5039363;28;20028;-72
2022/02/08 06:23:24;;;;;;;15.23;3.92;;;6.70;81.30;;;;;;5033641;28;20040;-72
2022/02/08 06:25:50;;;;;;;11.88;4.18;;;6.70;81.80;;;;;;5036415;28;20063;-72
2022/02/08 06:28:17;;;;;;;12.52;4.10;;;6.60;81.40;;;;;;5035451;28;20504;-72
2022/02/08 06:30:45;;;;;;;14.30;4.10;;;6.60;82.30;;;;;;5036077;28;20033;-72
2022/02/08 06:33:12;;;;;;;11.77;3.70;;;6.60;82.50;;;;;;5038176;28;20095;-72
2022/02/08 06:35:38;;;;;;;11.60;3.75;;;6.60;82.40;;;;;;5033117;28;20895;-72
2022/02/08 06:38:08;;;;;;;13.63;4.00;;;6.60;83.00;;;;;;5035887;28;20040;-72
2022/02/08 06:40:36;;;;;;;12.77;4.32;;;6.70;82.50;;;;;;5033006;28;20747;-72
2022/02/08 06:43:03;;;;;;;12.23;4.05;;;6.70;82.50;;;;;;5038399;28;20036;-72
2022/02/08 06:45:30;;;;;;;14.93;3.85;;;6.70;82.50;;;;;;5033028;28;20029;-72
2022/02/08 06:47:55;;;;;;;11.48;3.75;;;6.70;82.60;;;;;;5041069;28;20075;-72
2022/02/08 06:50:21;;;;;;;11.82;3.83;;;6.70;82.50;;;;;;5041418;28;20021;-72
2022/02/08 06:52:48;;;;;;;9.73;3.63;;;6.70;82.80;;;;;;5044214;28;20400;-72
2022/02/08 06:55:14;;;;;;;9.07;3.35;;;6.80;82.60;;;;;;5035384;28;20081;-72
2022/02/08 06:58:00;;;;;;;14.70;3.38;;;6.80;82.60;;;;;;5041784;28;20399;-72
2022/02/08 07:00:36;;;;;;;10.35;3.53;;;6.90;82.60;;;;;;5038541;28;20163;-72
2022/02/08 07:03:03;;;;;;;;;;;6.80;82.70;;;;;;5042420;28;20033;-72
2022/02/08 07:05:28;;;;;;;;;;;6.80;83.00;;;;;;5036979;28;20620;-72
2022/02/08 07:07:54;;;;;;;10.53;2.90;;;6.80;83.40;;;;;;5035600;28;19913;-72
2022/02/08 07:10:20;;;;;;;10.05;3.45;;;6.90;83.40;;;;;;5039653;28;20059;-72
2022/02/08 07:12:45;;;;;;;10.85;3.78;;;6.90;83.80;;;;;;5041309;28;20571;-72
2022/02/08 07:15:14;;;;;;;11.27;3.88;;;7.00;84.30;;;;;;5038939;28;20837;-72
2022/02/08 07:17:41;;;;;;;10.75;3.60;;;7.00;84.70;;;;;;5034313;28;20569;-72
2022/02/08 07:20:07;;;;;;;11.18;3.15;;;7.00;85.20;;;;;;5037468;28;20468;-73
2022/02/08 07:22:33;;;;;;;10.18;3.55;;;7.00;85.90;;;;;;5039983;28;20029;-72
2022/02/08 07:24:59;;;;;;;10.48;4.30;;;6.90;86.20;;;;;;5040860;28;20033;-72
2022/02/08 07:27:25;;;;;;;7.13;3.08;;;6.90;86.20;;;;;;5039370;28;20025;-72
2022/02/08 07:29:53;;;;;;;9.18;3.47;;;6.80;86.60;;;;;;5038340;28;20826;-72
2022/02/08 07:32:27;;;;;;;9.57;3.70;;;6.90;87.20;;;;;;5037779;28;20029;-72
2022/02/08 07:35:06;;;;;;;7.13;3.97;;;6.90;87.80;;;;;;5038452;28;20041;-72
2022/02/08 07:37:47;;;;;;;8.25;3.60;;;6.90;88.90;;;;;;5039336;28;20815;-72
2022/02/08 07:40:28;;;;;;;10.50;3.83;;;6.90;88.90;;;;;;5040825;28;20036;-72
2022/02/08 07:42:55;;;;;;;7.53;4.13;;;6.90;89.30;;;;;;5039265;28;20037;-72
2022/02/08 07:45:29;;;;;;;9.45;3.53;;;6.80;89.90;;;;;;5022662;28;20024;-72
2022/02/08 07:47:55;;;;;;;11.27;4.32;;;6.70;90.60;;;;;;5041341;28;20025;-72
2022/02/08 07:50:26;;;;;;;10.13;4.13;;;6.60;91.40;;;;;;5032462;28;20025;-72
2022/02/08 07:52:53;;;;;;;12.65;4.18;;;6.50;91.90;;;;;;5023537;28;20037;-72
2022/02/08 07:55:20;;;;;;;13.63;4.07;;;6.50;92.30;;;;;;5039545;28;20028;-72
2022/02/08 07:57:45;;;;;;;10.07;4.30;;;6.50;92.50;;;;;;5031323;28;20087;-72
2022/02/08 08:00:12;;;;;;;12.93;5.07;;;6.50;92.60;;;;;;5035298;28;20034;-72
2022/02/08 08:02:39;;;;;;;15.38;3.85;;;6.40;92.90;;;;;;5037415;28;20038;-72
2022/02/08 08:05:07;;;;;;;12.90;4.18;;;6.40;93.00;;;;;;5040919;28;20742;-72
2022/02/08 08:07:34;;;;;;;11.55;4.32;;;6.30;93.30;;;;;;5038049;28;20033;-72
2022/02/08 08:10:02;;;;;;;11.60;4.32;;;6.40;93.40;;;;;;5039341;28;20131;-72
2022/02/08 08:12:28;;;;;;;13.10;3.80;;;6.40;93.40;;;;;;5033679;28;20059;-72
2022/02/08 08:14:57;;;;;;;10.05;4.10;;;6.50;93.40;;;;;;5041035;28;20051;-72
2022/02/08 08:19:54;;;;;;;9.88;4.05;;;6.30;93.40;;;;;;5035774;28;20043;-72
2022/02/08 08:22:20;;;;;;;7.88;3.78;;;6.40;93.90;;;;;;5040221;28;20033;-71
2022/02/08 08:24:47;;;;;;;17.92;3.90;;;6.40;93.70;;;;;;5039845;28;20421;-72
2022/02/08 08:27:18;;;;;;;8.65;3.42;;;6.50;93.40;;;;;;5041489;28;20033;-72
2022/02/08 08:29:44;;;;;;;8.73;3.83;;;6.60;93.20;;;;;;5040202;28;20039;-72
2022/02/08 08:32:10;;;;;;;12.10;3.83;;;6.60;93.10;;;;;;5032245;28;20039;-72
2022/02/08 08:34:37;;;;;;;19.48;6.85;;;6.70;92.90;;;;;;5035966;28;20810;-72
2022/02/08 08:37:04;;;;;;;11.00;3.97;;;6.70;92.70;;;;;;5036981;28;20021;-72
2022/02/08 08:39:43;;;;;;;10.20;3.97;;;6.80;92.80;;;;;;5038446;28;20418;-71
2022/02/08 08:42:32;;;;;;;9.35;3.60;;;6.90;92.70;;;;;;5037632;28;20071;-72
2022/02/08 08:50:31;;;;;;;10.90;4.40;;;7.00;92.60;;;;;;5035596;28;20736;-72
2022/02/08 08:52:58;;;;;;;9.93;3.95;;;7.00;92.70;;;;;;5030536;28;20063;-72
2022/02/08 08:55:24;;;;;;;9.25;4.32;;;7.10;92.70;;;;;;5030152;28;20041;-72
2022/02/08 08:57:50;;;;;;;10.95;4.10;;;7.10;92.50;;;;;;5040330;28;20090;-72
2022/02/08 09:00:15;;;;;;;7.53;4.20;;;7.10;92.40;;;;;;5035054;28;20029;-73
2022/02/08 09:02:41;;;;;;;8.23;4.22;;;7.20;92.50;;;;;;5034122;28;20485;-73
2022/02/08 09:05:11;;;;;;;8.38;3.80;;;7.30;92.50;;;;;;5036290;28;20017;-73
2022/02/08 09:07:40;;;;;;;12.45;4.32;;;7.30;92.30;;;;;;5040923;28;20047;-73
2022/02/08 09:10:07;;;;;;;9.32;3.63;;;7.40;92.10;;;;;;5040263;28;20044;-72
2022/02/08 09:21:16;;;;;;;5.03;3.38;;;7.70;91.70;;;;;;5037445;28;20055;-71
2022/02/08 09:31:02;;;;;;;8.82;3.75;;;7.50;92.10;;;;;;5034960;28;20162;-74
2022/02/08 09:33:28;;;;;;;12.88;4.13;;;7.60;92.10;;;;;;5035712;28;20840;-74
2022/02/08 09:35:55;;;;;;;8.73;4.78;;;7.60;91.90;;;;;;5037238;28;20029;-74
2022/02/08 09:38:22;;;;;;;10.27;5.18;;;7.60;92.00;;;;;;5038854;28;20047;-74
2022/02/08 09:40:51;;;;;;;5.20;3.63;;;7.70;91.90;;;;;;5042932;28;20029;-74
2022/02/08 09:43:18;;;;;;;6.75;3.90;;;7.70;91.90;;;;;;5036099;28;20086;-79
2022/02/08 09:45:49;;;;;;;6.75;4.22;;;7.90;91.70;;;;;;5022531;28;20734;-74
2022/02/08 09:48:25;;;;;;;10.90;5.53;;;8.00;91.40;;;;;;5027950;28;20045;-74
2022/02/08 09:50:52;;;;;;;17.52;8.95;;;8.00;91.20;;;;;;5029111;28;20777;-76
2022/02/08 09:53:30;;;;;;;9.38;5.35;;;8.10;91.20;;;;;;5041587;28;20037;-74
2022/02/08 09:55:56;;;;;;;8.25;3.88;;;8.10;91.10;;;;;;5030772;28;20159;-75
2022/02/08 09:58:22;;;;;;;10.65;4.78;;;8.20;91.00;;;;;;5030261;28;20647;-76
2022/02/08 10:00:47;;;;;;;8.98;4.38;;;8.30;90.80;;;;;;5031811;28;20029;-73
2022/02/08 10:03:18;;;;;;;9.07;4.53;;;8.20;90.70;;;;;;5038872;28;20075;-77
2022/02/08 10:05:56;;;;;;;14.10;6.18;;;8.40;90.70;;;;;;5016047;28;20076;-74
2022/02/08 10:08:23;;;;;;;17.85;6.78;;;8.30;90.90;;;;;;5031073;28;20037;-74
2022/02/08 10:10:49;;;;;;;21.58;8.35;;;8.30;91.20;;;;;;5034305;28;20052;-74
2022/02/08 10:21:48;;;;;;;33.50;12.63;;;8.30;91.30;;;;;;4983765;28;20073;-74
2022/02/08 10:24:18;;;;;;;27.15;10.07;;;8.30;91.30;;;;;;5043717;28;20040;-74
2022/02/08 10:29:36;;;;;;;23.23;9.38;;;8.50;91.30;;;;;;5036311;28;20041;-73
2022/02/08 10:40:13;;;;;;;10.25;5.72;;;8.70;90.60;;;;;;5036928;28;20029;-74
2022/02/08 10:42:50;;;;;;;11.88;5.10;;;8.60;90.90;;;;;;5038630;28;20470;-73
2022/02/08 10:45:22;;;;;;;16.27;6.05;;;8.60;90.90;;;;;;5033547;28;20104;-74
2022/02/08 10:47:59;;;;;;;16.95;6.50;;;8.70;90.80;;;;;;5042711;28;20809;-74
2022/02/08 10:50:29;;;;;;;9.73;4.63;;;8.70;90.70;;;;;;5040810;28;20029;-68
2022/02/08 10:52:56;;;;;;;8.93;4.88;;;8.80;90.70;;;;;;5043261;28;20063;-71
2022/02/08 10:58:30;;;;;;;8.02;4.25;;;8.90;90.50;;;;;;5019461;28;20147;-71
2022/02/08 11:08:54;;;;;;;7.95;4.72;;;9.10;90.50;;;;;;5044129;28;20057;-73
2022/02/08 11:14:29;;;;;;;10.70;5.20;;;9.20;90.50;;;;;;5043998;28;20114;-72
2022/02/08 11:19:59;;;;;;;12.10;5.80;;;9.40;90.40;;;;;;5044407;28;20037;-72
2022/02/08 11:25:20;;;;;;;9.82;5.88;;;9.50;90.20;;;;;;5043157;28;20143;-71
2022/02/08 11:27:51;;;;;;;11.85;6.05;;;9.50;90.20;;;;;;5043263;28;20041;-73
2022/02/08 11:39:17;;;;;;;11.65;6.85;;;9.70;90.00;;;;;;5041622;28;20078;-70
2022/02/08 11:49:49;;;;;;;14.38;8.05;;;9.90;90.00;;;;;;5042829;28;20041;-71
2022/02/08 11:57:53;;;;;;;13.27;7.03;;;10.00;89.40;;;;;;5042104;28;20024;-77
2022/02/08 12:00:33;;;;;;;9.70;5.95;;;9.90;89.60;;;;;;5042504;28;20677;-69
2022/02/08 12:06:27;;;;;;;10.68;6.40;;;10.00;89.20;;;;;;5031474;28;20041;-71
2022/02/08 12:08:58;;;;;;;12.65;7.05;;;10.10;89.20;;;;;;5042275;28;20044;-74
2022/02/08 12:29:04;;;;;;;17.35;8.73;;;10.40;88.60;;;;;;5022077;28;20121;-77
2022/02/08 12:31:36;;;;;;;12.45;7.43;;;10.50;88.20;;;;;;5043548;28;20053;-69
2022/02/08 12:34:39;;;;;;;13.32;8.40;;;10.60;88.40;;;;;;5042712;28;20037;-76
2022/02/08 12:54:13;;;;;;;13.10;6.93;;;11.00;87.60;;;;;;5024803;28;20033;-72
2022/02/08 13:02:24;;;;;;;11.77;6.65;;;11.00;89.30;;;;;;5024948;28;20112;-72
2022/02/08 14:02:18;;;;;;;13.52;6.97;;;10.60;92.60;;;;;;5044513;28;20507;-70
2022/02/08 14:07:15;;;;;;;12.95;7.25;;;10.60;92.60;;;;;;5042540;28;20029;-70
2022/02/08 14:17:38;;;;;;;13.68;7.00;;;10.80;92.30;;;;;;5044200;28;20075;-71
2022/02/08 14:20:42;;;;;;;10.93;7.38;;;10.90;92.30;;;;;;5044154;28;20037;-77
2022/02/08 14:23:11;;;;;;;11.80;7.00;;;10.90;92.50;;;;;;5043407;28;20036;-71
2022/02/08 14:29:02;;;;;;;9.98;6.38;;;11.00;92.10;;;;;;5042575;28;20029;-71
2022/02/08 14:36:53;;;;;;;14.52;6.68;;;11.00;91.60;;;;;;5041774;28;20115;-72
2022/02/08 15:09:17;;;;;;;10.98;5.45;;;11.10;91.00;;;;;;5038063;28;20029;-67
2022/02/08 15:11:59;;;;;;;12.82;5.63;;;11.10;91.00;;;;;;5037929;28;20033;-67
2022/02/08 15:14:27;;;;;;;10.13;5.70;;;11.20;90.90;;;;;;5035960;28;20114;-69
2022/02/08 15:16:53;;;;;;;8.57;5.53;;;11.10;90.90;;;;;;5037963;28;20036;-68
2022/02/08 15:19:18;;;;;;;10.45;5.30;;;11.20;91.00;;;;;;5035882;28;20033;-69
2022/02/08 15:21:44;;;;;;;6.93;5.30;;;11.10;90.90;;;;;;5035468;28;20881;-70
2022/02/08 15:24:12;;;;;;;7.88;5.20;;;11.00;90.80;;;;;;5034799;28;20063;-68
2022/02/08 15:26:45;;;;;;;12.93;5.63;;;11.00;91.00;;;;;;5035175;28;20105;-66
2022/02/08 15:29:11;;;;;;;8.48;4.93;;;11.00;90.90;;;;;;5033852;28;20117;-66
2022/02/08 15:31:36;;;;;;;5.88;4.43;;;11.00;91.10;;;;;;5035207;28;20060;-67
2022/02/08 15:34:02;;;;;;;8.70;5.18;;;11.00;91.00;;;;;;5039240;28;20053;-67
2022/02/08 15:36:30;;;;;;;11.82;5.18;;;11.00;91.00;;;;;;5026610;28;20037;-68
2022/02/08 15:39:01;;;;;;;9.88;4.82;;;11.10;91.00;;;;;;5017096;28;20107;-66
2022/02/08 15:41:27;;;;;;;8.80;4.63;;;11.10;91.00;;;;;;5044242;28;20040;-65
2022/02/08 15:43:53;;;;;;;5.70;4.38;;;11.10;90.80;;;;;;5045727;28;20025;-66
2022/02/08 15:46:24;;;;;;;9.30;5.53;;;11.10;90.80;;;;;;5044844;28;20071;-65
2022/02/08 15:48:52;;;;;;;9.30;4.68;;;11.10;90.80;;;;;;5045383;28;20039;-70
2022/02/08 15:51:29;;;;;;;8.43;4.70;;;11.10;90.80;;;;;;5044666;28;20049;-68
2022/02/08 15:54:12;;;;;;;6.82;4.53;;;11.10;90.70;;;;;;5042856;28;20039;-66
2022/02/08 16:07:16;;;;;;;7.55;5.70;;;10.90;91.50;;;;;;5046305;28;20037;-69
2022/02/08 16:20:17;;;;;;;11.80;6.63;;;10.80;92.20;;;;;;5044907;28;20033;-67
2022/02/08 16:23:54;;;;;;;7.60;5.40;;;10.70;92.50;;;;;;5044026;28;20041;-66
2022/02/08 16:25:40;;;;;;;6.68;5.55;;;10.70;92.70;;;;;;5034291;28;20141;-68
2022/02/08 16:28:37;;;;;;;10.80;6.18;;;10.70;92.80;;;;;;5045537;28;20028;-68
2022/02/08 16:56:05;;;;;;;15.48;8.63;;;10.60;93.80;;;;;;5043877;28;20033;-66
2022/02/08 16:58:12;;;;;;;12.77;8.57;;;10.50;93.90;;;;;;5034559;28;20056;-66
2022/02/08 17:00:42;;;;;;;19.85;9.18;;;10.50;94.10;;;;;;5044972;28;20040;-67
2022/02/08 17:03:08;;;;;;;15.60;8.38;;;10.50;94.10;;;;;;5044210;28;20093;-69
2022/02/08 17:05:35;;;;;;;10.00;6.72;;;10.50;94.20;;;;;;5044524;28;20037;-67
2022/02/08 17:08:02;;;;;;;10.95;7.72;;;10.50;94.20;;;;;;5044807;28;20111;-67
2022/02/08 17:13:52;;;;;;;10.23;7.65;;;10.50;94.30;;;;;;5044580;28;20570;-69
2022/02/08 17:45:01;;;;;;;11.45;8.45;;;10.50;94.40;;;;;;5042632;28;20462;-69
2022/02/08 17:49:56;;;;;;;13.70;9.00;;;10.40;94.60;;;;;;5045489;28;20475;-68
2022/02/08 17:52:22;;;;;;;12.60;8.32;;;10.40;94.60;;;;;;5064040;28;20628;-68
2022/02/08 17:54:48;;;;;;;11.45;8.38;;;10.50;94.60;;;;;;5064176;28;20033;-69
2022/02/08 17:57:13;;;;;;;12.90;9.57;;;10.50;94.60;;;;;;5064529;28;20036;-68
2022/02/08 17:59:40;;;;;;;13.15;8.60;;;10.50;94.60;;;;;;5064740;28;20039;-68
2022/02/08 18:02:09;;;;;;;12.85;8.80;;;10.50;94.50;;;;;;5062827;28;20036;-68
2022/02/08 18:04:35;;;;;;;13.38;8.57;;;10.50;94.40;;;;;;5064215;28;20036;-68
2022/02/08 18:07:02;;;;;;;14.20;9.32;;;10.50;94.50;;;;;;5064285;28;20043;-68
2022/02/08 18:09:29;;;;;;;14.23;9.80;;;10.50;94.50;;;;;;5064186;28;20388;-67
2022/02/08 18:11:57;;;;;;;13.75;9.27;;;10.50;94.50;;;;;;5064863;28;20020;-68
2022/02/08 18:14:24;;;;;;;15.20;9.73;;;10.50;94.50;;;;;;5062377;28;20036;-67
2022/02/08 18:17:04;;;;;;;17.55;9.65;;;10.50;94.40;;;;;;5064136;28;20198;-68
2022/02/08 18:19:34;;;;;;;18.52;10.40;;;10.60;94.40;;;;;;5062945;28;20131;-68
2022/02/08 19:20:55;;;;;;;20.27;12.88;;;10.60;94.50;;;;;;5046567;28;20059;-65
2022/02/08 19:23:21;;;;;;;17.67;12.38;;;10.70;94.50;;;;;;5044620;28;20458;-66
2022/02/08 19:25:47;;;;;;;18.05;12.45;;;10.70;94.30;;;;;;5044934;28;20119;-65
2022/02/08 19:28:13;;;;;;;18.25;11.82;;;10.70;94.50;;;;;;5044866;28;20039;-65
2022/02/08 19:30:38;;;;;;;22.17;12.93;;;10.70;94.40;;;;;;5046181;28;20464;-66
2022/02/08 19:33:04;;;;;;;20.15;13.13;;;10.70;94.40;;;;;;5043857;28;20080;-65
2022/02/08 19:35:30;;;;;;;20.85;13.43;;;10.70;94.60;;;;;;5046130;28;20044;-65
2022/02/08 19:37:56;;;;;;;21.33;13.75;;;10.70;94.40;;;;;;5046061;28;20032;-65
2022/02/08 19:40:23;;;;;;;22.20;13.77;;;10.70;94.40;;;;;;5046920;28;20132;-65
2022/02/08 19:42:49;;;;;;;22.83;13.93;;;10.70;94.50;;;;;;5045606;28;20041;-66
2022/02/08 19:45:24;;;;;;;23.17;14.60;;;10.70;94.40;;;;;;5044419;28;20032;-66
2022/02/08 19:47:50;;;;;;;23.95;14.77;;;10.70;94.40;;;;;;5046197;28;20043;-66
2022/02/08 19:50:16;;;;;;;24.42;14.38;;;10.70;94.40;;;;;;5045591;28;20032;-66
2022/02/08 19:52:43;;;;;;;25.02;14.35;;;10.70;94.40;;;;;;5045643;28;20465;-66
2022/02/08 19:57:48;;;;;;;21.35;14.00;;;10.70;94.40;;;;;;5046091;28;20037;-65
2022/02/08 20:00:19;;;;;;;20.45;13.13;;;10.70;94.50;;;;;;5045853;28;20098;-66
2022/02/08 20:02:49;;;;;;;22.92;13.57;;;10.70;94.40;;;;;;5043987;28;20029;-65
2022/02/08 20:05:16;;;;;;;26.23;14.98;;;10.70;94.40;;;;;;5045798;28;20045;-65
2022/02/08 20:07:43;;;;;;;22.92;14.23;;;10.70;94.60;;;;;;5044838;28;20033;-65
2022/02/08 20:10:09;;;;;;;23.88;15.68;;;10.70;94.60;;;;;;5043305;28;20131;-66
2022/02/08 20:12:35;;;;;;;23.05;14.57;;;10.70;94.60;;;;;;5043743;28;20032;-66
2022/02/08 20:15:05;;;;;;;24.42;15.70;;;10.70;94.70;;;;;;5043904;28;20033;-65
2022/02/08 20:17:32;;;;;;;23.42;14.40;;;10.70;94.70;;;;;;5043614;28;20075;-69
2022/02/08 20:19:59;;;;;;;26.08;14.43;;;10.70;94.60;;;;;;5044160;28;20033;-67
2022/02/08 20:22:25;;;;;;;23.88;15.02;;;10.70;94.60;;;;;;5045666;28;20047;-66
2022/02/08 20:24:53;;;;;;;23.73;13.65;;;10.70;94.70;;;;;;5043602;28;20033;-66
2022/02/08 20:30:03;;;;;;;26.40;16.30;;;10.70;94.50;;;;;;5044530;28;20106;-66
2022/02/08 20:32:29;;;;;;;25.23;14.77;;;10.70;94.70;;;;;;5027642;28;20029;-66
2022/02/08 20:34:55;;;;;;;23.33;14.15;;;10.70;94.70;;;;;;5044518;28;20382;-66
2022/02/08 20:37:22;;;;;;;22.58;14.60;;;10.60;94.70;;;;;;5044655;28;20373;-66
2022/02/08 20:39:48;;;;;;;24.85;15.20;;;10.70;94.70;;;;;;5044365;28;20063;-66
2022/02/08 20:42:15;;;;;;;24.08;14.73;;;10.70;94.70;;;;;;5044886;28;20436;-66
2022/02/08 20:44:44;;;;;;;21.67;13.45;;;10.60;94.80;;;;;;5043712;28;20048;-66
2022/02/08 20:47:20;;;;;;;21.08;13.27;;;10.60;94.80;;;;;;5044879;28;20504;-66
2022/02/08 20:49:48;;;;;;;21.25;13.80;;;10.60;94.70;;;;;;5044850;28;20118;-66
2022/02/08 20:52:16;;;;;;;22.38;14.32;;;10.70;94.90;;;;;;5045434;28;20036;-66
2022/02/08 20:54:49;;;;;;;22.63;13.07;;;10.70;94.70;;;;;;5044728;28;20107;-66
2022/02/08 20:57:22;;;;;;;22.90;13.52;;;10.70;94.80;;;;;;5045860;28;20591;-66
2022/02/08 20:59:48;;;;;;;22.50;13.50;;;10.70;94.80;;;;;;5045528;28;20128;-66